Time;durP1;ratioP1;P1;durP2;ratioP2;P2;SDS_P1;SDS_P2;PMS_P1;PMS_P2;Temp;Humidity;BMP_temperature;BMP_pressure;BME280_temperature;BME280_humidity;BME280_pressure;Samples;Min_cycle;Max_cycle;Signal;HPM_P1;HPM_P2
2021/01/31 00:00:30;;;;;;;19.93;13.27;;;;;;;1.71;80.63;99549.63;5028152;28;20044;-75
2021/01/31 00:02:55;;;;;;;21.38;13.98;;;;;;;1.75;80.64;99536.28;5030214;28;20116;-74
2021/01/31 00:05:23;;;;;;;19.23;14.40;;;;;;;1.76;79.73;99550.78;5030476;28;20112;-76
2021/01/31 00:07:49;;;;;;;21.13;14.30;;;;;;;1.46;79.98;99514.28;5006152;28;20439;-73
2021/01/31 00:10:17;;;;;;;22.20;14.80;;;;;;;1.59;80.52;99564.19;5010553;28;20040;-77
2021/01/31 00:12:42;;;;;;;20.07;14.97;;;;;;;1.51;80.80;99557.78;5027957;28;20025;-75
2021/01/31 00:15:13;;;;;;;23.57;15.33;;;;;;;1.51;80.60;99561.22;5029078;28;20526;-80
2021/01/31 00:17:39;;;;;;;23.00;15.57;;;;;;;1.34;81.30;99546.63;5028625;28;20506;-74
2021/01/31 00:20:05;;;;;;;22.87;16.30;;;;;;;1.28;81.47;99555.66;5029711;28;20179;-76
2021/01/31 00:22:30;;;;;;;23.67;15.93;;;;;;;1.23;82.03;99563.78;5030000;28;20038;-75
2021/01/31 00:24:56;;;;;;;26.87;18.57;;;;;;;1.05;82.28;99546.66;5027399;28;20523;-79
2021/01/31 00:27:24;;;;;;;29.80;18.80;;;;;;;0.97;82.88;99560.56;5046679;28;20509;-76
2021/01/31 00:29:51;;;;;;;36.83;22.20;;;;;;;0.83;83.41;99569.03;5051257;28;20033;-75
2021/01/31 00:32:28;;;;;;;31.27;21.00;;;;;;;0.71;84.04;99567.50;5051119;28;20029;-75
2021/01/31 00:34:55;;;;;;;34.70;23.17;;;;;;;0.62;84.98;99567.81;5052404;28;20044;-73
2021/01/31 00:37:21;;;;;;;35.93;25.30;;;;;;;0.55;85.33;99567.31;5082456;28;20444;-76
2021/01/31 00:39:48;;;;;;;38.97;26.67;;;;;;;0.37;85.89;99557.75;5050611;28;20724;-74
2021/01/31 00:42:16;;;;;;;38.43;26.63;;;;;;;0.41;86.31;99580.03;5052196;28;20013;-74
2021/01/31 00:44:45;;;;;;;41.00;27.83;;;;;;;0.37;86.85;99569.59;5051917;28;20032;-75
2021/01/31 00:47:11;;;;;;;41.23;28.83;;;;;;;0.34;87.56;99567.72;5052288;28;20063;-75
2021/01/31 00:49:37;;;;;;;45.07;30.33;;;;;;;0.33;87.72;99576.13;5051803;28;20084;-74
2021/01/31 00:52:03;;;;;;;44.50;30.17;;;;;;;0.40;88.02;99580.81;5051975;28;20068;-73
2021/01/31 00:54:28;;;;;;;45.70;30.07;;;;;;;0.34;88.31;99572.81;5050710;28;20025;-75
2021/01/31 00:56:53;;;;;;;44.10;30.43;;;;;;;-0.04;88.18;99512.88;5051614;28;20033;-76
2021/01/31 00:59:19;;;;;;;46.13;28.43;;;;;;;0.34;88.71;99579.53;5067354;28;20028;-75
2021/01/31 01:01:44;;;;;;;44.77;28.63;;;;;;;0.37;89.37;99572.13;5051837;28;20493;-76
2021/01/31 01:04:10;;;;;;;44.73;29.00;;;;;;;0.44;90.17;99581.88;5052250;28;20422;-74
2021/01/31 01:06:35;;;;;;;44.40;28.93;;;;;;;0.53;90.35;99589.22;5051596;28;20082;-73
2021/01/31 01:09:01;;;;;;;43.40;28.03;;;;;;;0.56;90.22;99569.97;5051505;28;20036;-75
2021/01/31 01:11:26;;;;;;;47.27;29.77;;;;;;;0.67;90.07;99584.97;5051189;28;20024;-73
2021/01/31 01:13:51;;;;;;;48.47;30.70;;;;;;;0.61;90.00;99570.22;5051295;28;20037;-71
2021/01/31 01:16:17;;;;;;;43.33;26.77;;;;;;;0.65;90.02;99562.03;5051625;28;20024;-72
2021/01/31 01:18:42;;;;;;;43.77;27.63;;;;;;;0.78;89.92;99556.03;5051421;28;20048;-74
2021/01/31 01:21:08;;;;;;;43.17;29.27;;;;;;;0.79;89.72;99552.72;5050275;28;20056;-76
2021/01/31 01:23:33;;;;;;;44.13;29.43;;;;;;;0.86;89.25;99564.13;5051164;28;20033;-76
2021/01/31 01:25:59;;;;;;;47.20;29.77;;;;;;;0.78;89.28;99549.28;5051127;28;20036;-76
2021/01/31 01:28:24;;;;;;;45.17;30.87;;;;;;;0.67;88.93;99545.19;5050990;28;20021;-79
2021/01/31 01:30:49;;;;;;;47.57;31.77;;;;;;;0.74;88.90;99557.50;5049921;28;20025;-77
2021/01/31 01:33:15;;;;;;;48.97;32.93;;;;;;;0.60;88.71;99526.19;5049716;28;20016;-82
2021/01/31 01:35:40;;;;;;;45.50;29.67;;;;;;;0.85;88.28;99557.28;5049679;28;20090;-76
2021/01/31 01:38:06;;;;;;;50.27;31.30;;;;;;;0.82;88.27;99568.13;5049214;28;20056;-78
2021/01/31 01:40:37;;;;;;;46.73;31.37;;;;;;;0.89;88.26;99575.34;5050958;28;20014;-77
2021/01/31 01:43:05;;;;;;;47.33;31.70;;;;;;;0.95;88.49;99575.72;5049844;28;20133;-77
2021/01/31 01:45:31;;;;;;;49.73;32.40;;;;;;;1.05;88.16;99582.25;5080041;28;20032;-78
2021/01/31 01:48:05;;;;;;;47.60;31.43;;;;;;;0.69;88.19;99518.25;5049944;28;20064;-74
2021/01/31 01:50:38;;;;;;;42.00;28.57;;;;;;;1.12;88.22;99589.47;5058845;28;20182;-77
2021/01/31 01:53:08;;;;;;;44.63;28.83;;;;;;;1.16;87.70;99585.44;5051070;28;20110;-74
2021/01/31 01:55:37;;;;;;;45.63;28.35;;;;;;;1.15;87.87;99576.06;5052606;28;20040;-73
2021/01/31 01:58:12;;;;;;;42.03;27.70;;;;;;;1.05;87.83;99566.13;5033566;28;20033;-73
2021/01/31 02:00:43;;;;;;;44.13;29.50;;;;;;;1.00;88.15;99568.38;5062334;28;20124;-77
2021/01/31 02:03:14;;;;;;;40.70;28.03;;;;;;;0.94;88.21;99556.16;5037020;28;20029;-75
2021/01/31 02:05:45;;;;;;;42.60;28.50;;;;;;;1.06;88.45;99576.38;5032329;28;20033;-74
2021/01/31 02:08:11;;;;;;;39.97;26.53;;;;;;;1.00;88.69;99572.56;5060374;28;20040;-76
2021/01/31 02:10:36;;;;;;;40.97;26.70;;;;;;;0.99;88.62;99581.00;5054713;28;20037;-78
2021/01/31 02:13:04;;;;;;;42.73;29.17;;;;;;;1.01;88.59;99575.22;5033719;28;20029;-76
2021/01/31 02:15:29;;;;;;;38.20;25.30;;;;;;;0.89;88.07;99552.47;5051364;28;20475;-75
2021/01/31 02:18:13;;;;;;;46.73;27.67;;;;;;;1.03;88.19;99585.47;5032419;28;20032;-73
2021/01/31 02:21:16;;;;;;;42.20;26.73;;;;;;;0.99;87.76;99586.94;5050464;28;20118;-75
2021/01/31 02:24:14;;;;;;;40.77;26.80;;;;;;;0.92;88.25;99590.78;5082661;28;20033;-76
2021/01/31 02:26:51;;;;;;;42.07;27.93;;;;;;;0.95;87.67;99585.03;5008486;28;20038;-75
2021/01/31 02:29:28;;;;;;;40.03;27.30;;;;;;;0.93;87.51;99574.75;4992558;28;20030;-75
2021/01/31 02:32:15;;;;;;;41.47;26.93;;;;;;;0.95;87.61;99577.41;5006994;28;20037;-75
2021/01/31 02:35:00;;;;;;;39.03;26.53;;;;;;;1.00;87.35;99570.94;5006251;28;20042;-77
2021/01/31 02:37:37;;;;;;;38.87;26.70;;;;;;;0.58;87.18;99497.25;5006062;28;20037;-76
2021/01/31 02:40:12;;;;;;;45.20;29.07;;;;;;;0.91;86.96;99562.72;5004383;28;20038;-77
2021/01/31 02:43:03;;;;;;;43.33;28.03;;;;;;;0.90;87.17;99573.69;4990441;28;20034;-75
2021/01/31 02:45:37;;;;;;;37.97;25.37;;;;;;;0.87;86.90;99564.19;5003171;28;20557;-74
2021/01/31 02:48:16;;;;;;;37.00;23.80;;;;;;;0.95;86.31;99551.97;5007478;28;20037;-76
2021/01/31 02:51:06;;;;;;;38.95;25.23;;;;;;;1.00;86.09;99562.41;5008240;28;20036;-76
2021/01/31 02:53:38;;;;;;;33.97;24.02;;;;;;;1.06;86.09;99571.28;5003447;28;20042;-75
2021/01/31 02:56:30;;;;;;;34.30;23.60;;;;;;;1.12;85.73;99569.13;4989599;28;20124;-75
2021/01/31 02:59:04;;;;;;;36.43;24.27;;;;;;;1.06;85.13;99566.22;4932277;28;20524;-75
2021/01/31 03:01:41;;;;;;;34.80;23.27;;;;;;;0.65;85.35;99503.59;4939650;28;20034;-75
2021/01/31 03:04:46;;;;;;;37.67;23.77;;;;;;;1.05;85.65;99576.28;4991577;28;20492;-76
2021/01/31 03:07:19;;;;;;;37.90;23.07;;;;;;;0.96;85.46;99571.53;4937004;29;20039;-75
2021/01/31 03:09:50;;;;;;;35.33;24.50;;;;;;;0.98;85.93;99572.47;4950867;29;20043;-78
2021/01/31 03:12:22;;;;;;;35.00;22.23;;;;;;;0.52;85.62;99509.59;4933247;29;20043;-75
2021/01/31 03:14:57;;;;;;;33.10;22.57;;;;;;;0.72;85.96;99558.19;4951754;28;20097;-74
2021/01/31 03:17:43;;;;;;;35.53;23.77;;;;;;;0.84;86.14;99586.03;4950810;28;20070;-74
2021/01/31 03:20:21;;;;;;;37.13;24.23;;;;;;;0.83;86.38;99599.50;4952072;28;20055;-77
2021/01/31 03:23:15;;;;;;;34.83;23.73;;;;;;;0.78;86.32;99589.06;4936655;29;20035;-76
2021/01/31 03:25:46;;;;;;;33.53;21.90;;;;;;;0.73;86.48;99583.69;4891658;29;20088;-78
2021/01/31 03:28:13;;;;;;;37.10;23.63;;;;;;;0.68;86.98;99585.06;4892353;29;20066;-77
2021/01/31 03:30:39;;;;;;;34.27;22.43;;;;;;;0.70;87.31;99593.69;4893065;29;20511;-76
2021/01/31 03:33:12;;;;;;;34.40;23.60;;;;;;;0.59;87.75;99582.84;4894960;29;20527;-76
2021/01/31 03:35:44;;;;;;;39.07;25.33;;;;;;;0.40;87.71;99555.44;4901175;29;20036;-76
2021/01/31 03:38:24;;;;;;;36.77;24.03;;;;;;;0.73;87.93;99601.47;4914655;29;20060;-76
2021/01/31 03:40:52;;;;;;;;;;;;;;;0.74;87.78;99595.59;4915309;29;20060;-80
2021/01/31 03:43:18;;;;;;;36.37;22.27;;;;;;;0.66;87.74;99576.50;4926059;28;19915;-76
2021/01/31 03:46:15;;;;;;;38.90;24.93;;;;;;;0.72;87.85;99592.09;4952932;29;20035;-77
2021/01/31 03:49:10;;;;;;;42.87;25.73;;;;;;;0.62;88.43;99580.50;4952640;29;20537;-75
2021/01/31 03:51:36;;;;;;;37.50;24.10;;;;;;;0.51;88.58;99575.53;4972897;28;20034;-78
2021/01/31 03:54:04;;;;;;;41.00;23.17;;;;;;;0.38;88.52;99563.72;4958980;28;20034;-74
2021/01/31 03:56:53;;;;;;;40.80;24.67;;;;;;;0.38;88.80;99597.59;4974180;28;20042;-74
2021/01/31 03:59:26;;;;;;;46.17;26.85;;;;;;;0.31;88.93;99603.06;4957277;28;20027;-75
2021/01/31 04:01:54;;;;;;;45.47;28.73;;;;;;;0.17;89.21;99593.72;4987762;28;20040;-78
2021/01/31 04:04:27;;;;;;;46.87;30.27;;;;;;;0.02;89.66;99558.94;5046064;28;20414;-76
2021/01/31 04:06:57;;;;;;;46.13;30.27;;;;;;;0.29;89.76;99591.97;5053678;28;20024;-76
2021/01/31 04:09:24;;;;;;;45.63;30.00;;;;;;;0.32;89.69;99584.53;5070315;28;20447;-77
2021/01/31 04:12:01;;;;;;;45.47;29.57;;;;;;;0.43;89.06;99581.00;5053565;28;20070;-79
2021/01/31 04:14:36;;;;;;;45.93;30.37;;;;;;;0.58;88.38;99592.91;5052684;28;20059;-76
2021/01/31 04:17:02;;;;;;;54.07;33.07;;;;;;;0.49;87.66;99580.50;5070196;28;20058;-76
2021/01/31 04:19:28;;;;;;;57.67;35.43;;;;;;;0.57;87.55;99593.69;5069783;28;20080;-76
2021/01/31 04:21:53;;;;;;;55.33;34.93;;;;;;;0.53;86.92;99581.59;5053394;28;20102;-74
2021/01/31 04:24:18;;;;;;;45.93;29.80;;;;;;;0.51;86.67;99581.47;5070025;28;20040;-76
2021/01/31 04:26:44;;;;;;;47.30;30.70;;;;;;;0.53;86.63;99594.28;5070292;28;20032;-76
2021/01/31 04:29:11;;;;;;;45.60;29.37;;;;;;;0.63;86.67;99606.78;5050278;28;20048;-76
2021/01/31 04:31:36;;;;;;;44.53;28.90;;;;;;;0.59;86.62;99594.66;5084203;28;20422;-77
2021/01/31 04:34:02;;;;;;;41.87;27.10;;;;;;;0.61;86.88;99599.06;5052588;28;20022;-76
2021/01/31 04:36:28;;;;;;;38.97;25.27;;;;;;;0.59;86.74;99597.22;5051064;28;20036;-81
2021/01/31 04:38:54;;;;;;;36.37;24.20;;;;;;;0.67;86.71;99607.84;5052346;28;20044;-76
2021/01/31 04:41:20;;;;;;;35.50;24.27;;;;;;;0.78;86.55;99602.63;5052160;28;20033;-73
2021/01/31 04:43:49;;;;;;;41.70;27.43;;;;;;;0.69;86.16;99561.44;5081600;28;20081;-73
2021/01/31 04:46:20;;;;;;;55.80;37.50;;;;;;;0.88;85.26;99593.03;5052117;28;20021;-75
2021/01/31 04:48:56;;;;;;;55.80;40.60;;;;;;;0.93;84.98;99602.69;5050098;28;20112;-79
2021/01/31 04:51:37;;;;;;;53.73;36.00;;;;;;;0.99;84.39;99602.19;5051764;28;20098;-75
2021/01/31 04:54:39;;;;;;;42.87;29.40;;;;;;;0.93;83.78;99604.38;5049615;28;20029;-72
2021/01/31 04:57:13;;;;;;;34.67;24.13;;;;;;;1.01;83.96;99604.81;5051801;28;20367;-76
2021/01/31 04:59:47;;;;;;;34.17;22.80;;;;;;;0.80;84.55;99590.03;5051929;28;20024;-73
2021/01/31 05:02:34;;;;;;;33.10;21.83;;;;;;;0.82;84.76;99610.47;5051424;28;20611;-73
2021/01/31 05:05:01;;;;;;;35.13;22.47;;;;;;;0.82;84.67;99618.94;5051803;28;20056;-77
2021/01/31 05:07:36;;;;;;;90.30;39.97;;;;;;;0.88;84.15;99626.94;5049100;28;20021;-74
2021/01/31 05:10:05;;;;;;;97.63;39.13;;;;;;;0.86;83.10;99626.00;5051616;28;20437;-76
2021/01/31 05:12:39;;;;;;;44.13;25.67;;;;;;;0.87;82.72;99624.31;5051433;28;20067;-75
2021/01/31 05:15:27;;;;;;;36.03;24.40;;;;;;;0.82;83.52;99613.84;5050354;28;20456;-73
2021/01/31 05:17:56;;;;;;;35.37;23.40;;;;;;;0.77;83.50;99597.47;5066177;28;20447;-71
2021/01/31 05:20:24;;;;;;;36.20;22.83;;;;;;;0.58;83.47;99588.69;5051584;28;20136;-71
2021/01/31 05:22:53;;;;;;;36.77;24.20;;;;;;;0.45;84.43;99592.13;5051156;28;20078;-73
2021/01/31 05:25:22;;;;;;;33.03;21.55;;;;;;;0.19;84.86;99577.78;5050802;28;20047;-75
2021/01/31 05:28:00;;;;;;;26.70;17.67;;;;;;;0.28;85.10;99588.53;5051533;28;20060;-78
2021/01/31 05:30:27;;;;;;;36.40;22.17;;;;;;;-0.09;84.61;99516.78;5051422;28;20029;-75
2021/01/31 05:33:05;;;;;;;39.67;24.67;;;;;;;0.19;85.33;99575.25;5051187;28;20094;-77
2021/01/31 05:35:33;;;;;;;37.40;23.90;;;;;;;0.15;85.91;99576.72;5049872;28;20025;-73
2021/01/31 05:37:59;;;;;;;34.53;23.83;;;;;;;0.23;85.81;99583.94;5049655;28;20037;-73
2021/01/31 05:40:27;;;;;;;35.73;22.53;;;;;;;0.13;86.51;99596.03;5051227;28;20031;-77
2021/01/31 05:42:53;;;;;;;34.50;21.63;;;;;;;0.07;86.99;99582.94;5051299;28;20032;-74
2021/01/31 05:45:21;;;;;;;35.47;21.70;;;;;;;-0.47;87.34;99492.34;5050883;28;20029;-76
2021/01/31 05:47:49;;;;;;;34.47;22.87;;;;;;;-0.06;88.25;99570.28;5051271;28;20115;-74
2021/01/31 05:50:18;;;;;;;36.57;24.33;;;;;;;-0.01;87.43;99572.31;5049233;28;20453;-75
2021/01/31 05:52:43;;;;;;;35.80;21.10;;;;;;;-0.13;87.11;99560.50;5051250;28;20394;-75
2021/01/31 05:55:30;;;;;;;36.37;20.97;;;;;;;0.00;87.69;99596.06;5050810;28;20044;-75
2021/01/31 05:58:17;;;;;;;43.50;24.50;;;;;;;0.18;87.96;99616.66;5071556;28;20030;-73
2021/01/31 06:00:42;;;;;;;55.37;34.83;;;;;;;0.27;87.50;99616.34;5049055;28;20064;-74
2021/01/31 06:03:10;;;;;;;49.23;32.40;;;;;;;0.38;87.56;99628.06;5049612;28;20060;-72
2021/01/31 06:05:36;;;;;;;49.00;28.87;;;;;;;0.49;87.52;99631.31;5031556;28;20068;-74
2021/01/31 06:08:02;;;;;;;46.90;30.03;;;;;;;-0.17;87.97;99577.19;5047295;28;20120;-74
2021/01/31 06:10:28;;;;;;;43.33;26.40;;;;;;;0.06;87.46;99633.63;5051644;28;20462;-75
2021/01/31 06:13:08;;;;;;;44.40;29.40;;;;;;;0.18;87.15;99642.03;5051346;28;20025;-75
2021/01/31 06:15:39;;;;;;;36.78;25.60;;;;;;;-0.44;86.05;99525.53;5051570;28;20037;-76
2021/01/31 06:18:21;;;;;;;44.20;27.37;;;;;;;0.23;86.02;99650.81;5051132;28;20029;-74
2021/01/31 06:20:48;;;;;;;57.43;33.93;;;;;;;0.01;86.33;99613.00;5049218;28;20515;-75
2021/01/31 06:23:36;;;;;;;67.37;37.33;;;;;;;0.06;86.85;99636.16;5051272;28;20032;-79
2021/01/31 06:26:03;;;;;;;52.50;34.97;;;;;;;0.06;86.33;99631.94;5050997;28;20516;-75
2021/01/31 06:28:45;;;;;;;57.37;36.43;;;;;;;0.23;86.16;99650.81;5051010;28;20028;-74
2021/01/31 06:31:39;;;;;;;51.57;33.83;;;;;;;0.43;86.34;99669.00;5049614;28;20167;-74
2021/01/31 06:34:05;;;;;;;47.90;30.40;;;;;;;0.46;86.37;99659.94;5073265;28;20037;-76
2021/01/31 06:36:48;;;;;;;45.90;29.80;;;;;;;0.45;86.44;99655.63;5052182;28;20043;-74
2021/01/31 06:39:35;;;;;;;49.57;31.53;;;;;;;0.46;86.50;99659.03;5053071;28;20491;-74
2021/01/31 06:42:10;;;;;;;368.93;147.37;;;;;;;0.23;86.84;99584.81;5053503;28;20052;-75
2021/01/31 06:44:56;;;;;;;80.37;44.20;;;;;;;0.86;85.76;99655.59;5051361;28;20164;-77
2021/01/31 06:47:37;;;;;;;436.17;178.13;;;;;;;0.88;85.15;99634.56;5028330;28;20037;-74
2021/01/31 06:50:25;;;;;;;130.17;66.97;;;;;;;0.75;84.89;99576.19;5032338;28;20179;-74
2021/01/31 06:53:02;;;;;;;62.00;39.87;;;;;;;1.39;84.25;99654.59;5032085;28;20091;-75
2021/01/31 06:55:58;;;;;;;55.83;38.03;;;;;;;0.82;83.55;99536.78;5032379;28;20029;-73
2021/01/31 06:58:41;;;;;;;79.23;50.57;;;;;;;1.56;83.56;99656.47;5032331;28;20037;-74
2021/01/31 07:01:24;;;;;;;59.30;40.93;;;;;;;1.31;82.54;99584.56;5031487;28;20119;-74
2021/01/31 07:04:25;;;;;;;72.27;48.27;;;;;;;1.69;82.53;99655.53;5032539;28;20132;-73
2021/01/31 07:07:27;;;;;;;106.93;69.83;;;;;;;1.70;82.76;99658.97;5028937;28;20124;-74
2021/01/31 07:10:30;;;;;;;70.80;46.30;;;;;;;1.78;82.68;99658.63;5029709;28;20658;-75
2021/01/31 07:13:14;;;;;;;73.00;48.83;;;;;;;1.92;82.56;99666.22;4973878;28;20043;-76
2021/01/31 07:16:01;;;;;;;53.87;37.10;;;;;;;2.03;81.73;99670.25;4957221;28;20034;-74
2021/01/31 07:18:30;;;;;;;55.40;36.60;;;;;;;2.09;81.52;99662.97;4958432;28;20100;-74
2021/01/31 07:20:59;;;;;;;95.25;56.90;;;;;;;2.26;81.46;99670.69;4962171;28;20605;-76
2021/01/31 07:23:31;;;;;;;70.73;46.53;;;;;;;2.22;80.41;99673.88;4962684;28;20497;-74
2021/01/31 07:26:04;;;;;;;70.90;46.80;;;;;;;1.89;80.41;99615.09;5002820;28;20062;-74
2021/01/31 07:28:29;;;;;;;89.37;52.80;;;;;;;2.25;80.76;99663.84;4983695;28;20036;-72
2021/01/31 07:31:10;;;;;;;76.30;49.87;;;;;;;1.79;80.89;99603.50;4995875;28;20058;-74
2021/01/31 07:33:47;;;;;;;66.43;44.30;;;;;;;2.18;80.86;99674.47;4976451;28;20059;-74
2021/01/31 07:36:26;;;;;;;57.57;39.03;;;;;;;2.08;81.18;99680.69;4992642;28;20520;-80
2021/01/31 07:39:06;;;;;;;53.20;33.50;;;;;;;1.89;81.82;99668.56;4992638;28;20037;-72
2021/01/31 07:41:33;;;;;;;36.40;24.03;;;;;;;1.76;82.46;99682.25;4995958;28;20061;-74
2021/01/31 07:44:06;;;;;;;37.70;25.60;;;;;;;1.78;82.64;99675.56;4992781;28;20516;-73
2021/01/31 07:46:33;;;;;;;39.80;26.57;;;;;;;1.84;82.82;99665.72;4992909;28;20034;-75
2021/01/31 07:49:04;;;;;;;35.83;28.33;;;;;;;1.91;82.67;99647.50;5028113;28;20112;-78
2021/01/31 07:51:30;;;;;;;23.07;15.43;;;;;;;1.93;81.40;99678.13;5053592;28;20112;-76
2021/01/31 07:53:57;;;;;;;61.27;26.27;;;;;;;1.83;81.49;99665.66;5053367;28;20459;-78
2021/01/31 07:56:26;;;;;;;42.77;22.93;;;;;;;1.53;82.00;99630.84;5053320;28;20033;-73
2021/01/31 07:58:56;;;;;;;113.47;39.77;;;;;;;1.72;81.92;99683.72;5052851;28;20067;-78
2021/01/31 08:01:40;;;;;;;30.67;18.27;;;;;;;1.73;82.33;99677.84;5052993;28;20083;-73
2021/01/31 08:04:25;;;;;;;38.43;33.23;;;;;;;1.62;82.27;99681.41;5051602;28;20095;-78
2021/01/31 08:06:53;;;;;;;37.97;28.47;;;;;;;1.64;82.49;99684.91;5052809;28;20035;-74
2021/01/31 08:09:28;;;;;;;21.27;14.77;;;;;;;1.63;82.37;99679.75;5052086;28;20056;-74
2021/01/31 08:12:02;;;;;;;49.33;28.33;;;;;;;1.31;83.06;99631.25;5052874;28;20122;-74
2021/01/31 08:15:05;;;;;;;25.00;15.93;;;;;;;1.58;83.50;99693.06;5053000;28;20163;-76
2021/01/31 08:17:53;;;;;;;26.70;17.33;;;;;;;1.53;83.91;99684.25;5053626;28;20025;-73
2021/01/31 08:20:34;;;;;;;38.07;20.87;;;;;;;1.70;84.57;99702.22;5051332;28;20051;-72
2021/01/31 08:23:10;;;;;;;31.73;21.60;;;;;;;1.88;84.52;99703.31;5051095;28;20037;-75
2021/01/31 08:26:01;;;;;;;53.33;26.87;;;;;;;1.92;84.22;99699.28;5051673;28;20077;-73
2021/01/31 08:28:35;;;;;;;62.90;28.10;;;;;;;1.98;83.68;99697.13;5051352;28;20052;-74
2021/01/31 08:31:18;;;;;;;29.43;17.27;;;;;;;2.14;83.68;99703.09;5053167;28;20029;-75
2021/01/31 08:34:02;;;;;;;58.37;25.73;;;;;;;2.21;83.87;99717.94;5024938;28;20037;-73
2021/01/31 08:36:37;;;;;;;36.30;20.23;;;;;;;2.34;83.78;99711.88;5045555;28;20040;-72
2021/01/31 08:39:29;;;;;;;41.87;22.63;;;;;;;2.41;83.93;99712.31;5074640;28;20082;-72
2021/01/31 08:42:10;;;;;;;35.80;21.73;;;;;;;2.21;84.22;99646.63;5049457;28;20056;-74
2021/01/31 08:44:36;;;;;;;33.33;21.33;;;;;;;2.26;85.24;99653.72;5028962;28;20030;-72
2021/01/31 08:47:04;;;;;;;68.17;60.87;;;;;;;2.71;84.72;99713.97;5049679;28;20414;-71
2021/01/31 08:49:30;;;;;;;60.73;52.43;;;;;;;2.87;84.53;99719.13;5069848;28;20127;-76
2021/01/31 08:52:20;;;;;;;30.37;24.43;;;;;;;3.04;84.15;99720.06;5069592;28;20078;-75
2021/01/31 08:54:58;;;;;;;;;;;;;;;3.17;84.32;99719.03;5068351;28;20041;-71
2021/01/31 09:01:00;;;;;;;35.07;20.03;;;;;;;3.39;85.05;99721.09;5060186;28;20075;-75
2021/01/31 09:03:35;;;;;;;26.57;15.90;;;;;;;3.47;84.81;99718.94;5049020;28;20024;-72
2021/01/31 09:06:02;;;;;;;26.83;19.27;;;;;;;3.27;84.87;99661.75;5067667;28;20032;-73
2021/01/31 09:08:28;;;;;;;36.27;23.47;;;;;;;3.71;85.42;99706.59;5069779;28;20055;-74
2021/01/31 09:10:55;;;;;;;30.73;20.30;;;;;;;3.88;85.01;99711.69;5053044;28;20037;-76
2021/01/31 09:13:31;;;;;;;30.05;18.35;;;;;;;4.05;84.67;99703.22;5069839;28;20088;-74
2021/01/31 09:16:09;;;;;;;60.83;26.23;;;;;;;4.27;84.26;99709.41;5070257;28;20513;-75
2021/01/31 09:18:35;;;;;;;39.35;20.58;;;;;;;4.31;84.20;99690.88;5065229;28;20068;-74
2021/01/31 09:21:29;;;;;;;53.55;25.98;;;;;;;4.56;84.31;99693.75;5036464;28;20057;-74
2021/01/31 09:24:02;;;;;;;244.68;96.35;;;;;;;4.70;83.88;99685.06;4942884;28;20438;-75
2021/01/31 09:26:28;;;;;;;112.80;49.28;;;;;;;4.82;81.94;99680.53;4990948;28;20603;-74
2021/01/31 09:28:57;;;;;;;69.45;38.90;;;;;;;4.90;81.96;99687.66;4990824;28;20046;-75
2021/01/31 09:31:27;;;;;;;41.80;28.83;;;;;;;5.01;80.87;99671.16;4974610;28;20038;-74
2021/01/31 09:34:01;;;;;;;37.90;28.75;;;;;;;5.22;80.64;99683.19;4991521;28;20089;-74
2021/01/31 09:36:34;;;;;;;29.88;22.88;;;;;;;5.34;79.90;99665.81;4990975;28;20045;-74
2021/01/31 09:39:19;;;;;;;28.05;17.83;;;;;;;5.48;79.78;99672.44;4990892;28;20386;-74
2021/01/31 09:42:02;;;;;;;24.35;17.55;;;;;;;5.53;79.46;99685.44;4990365;28;20042;-74
2021/01/31 09:44:30;;;;;;;20.55;15.77;;;;;;;5.59;79.38;99672.91;4990562;28;20468;-74
2021/01/31 09:47:23;;;;;;;21.45;15.02;;;;;;;5.63;78.83;99684.16;4990460;28;20077;-72
2021/01/31 10:24:45;;;;;;;23.50;14.75;;;;;;;6.69;79.56;99656.09;5033133;28;20107;-74
2021/01/31 10:31:57;;;;;;;43.25;25.80;;;;;;;6.91;79.95;99647.56;5063536;28;20815;-74
2021/01/31 10:51:31;;;;;;;41.75;27.90;;;;;;;7.58;77.27;99617.47;5069001;28;20066;-76
2021/01/31 10:54:04;;;;;;;29.13;20.23;;;;;;;7.63;76.80;99630.47;5069034;28;20526;-74
2021/01/31 10:57:28;;;;;;;30.83;18.65;;;;;;;7.66;77.19;99622.88;5068953;28;20047;-73
2021/01/31 11:13:36;;;;;;;18.33;12.90;;;;;;;7.19;79.49;99566.44;5028473;28;20040;-78
2021/01/31 11:16:03;;;;;;;24.42;15.13;;;;;;;7.16;79.98;99586.88;5011767;28;20124;-76
2021/01/31 11:18:29;;;;;;;23.27;16.15;;;;;;;7.02;80.52;99576.97;5011909;28;20033;-73
2021/01/31 11:20:55;;;;;;;22.98;14.63;;;;;;;6.87;80.98;99582.41;5028350;28;20088;-76
2021/01/31 11:23:21;;;;;;;48.50;26.48;;;;;;;6.71;82.02;99587.78;5022341;28;20032;-72
2021/01/31 11:25:47;;;;;;;39.35;21.52;;;;;;;6.66;82.29;99569.66;5029952;28;20041;-76
2021/01/31 11:28:13;;;;;;;22.38;14.93;;;;;;;6.66;82.40;99577.34;5030830;28;20057;-73
2021/01/31 11:30:39;;;;;;;28.15;20.38;;;;;;;6.59;82.35;99581.38;5036494;28;20087;-75
2021/01/31 11:33:06;;;;;;;23.98;15.48;;;;;;;6.45;82.85;99568.00;5054528;28;20036;-74
2021/01/31 11:35:32;;;;;;;21.73;13.75;;;;;;;6.40;82.94;99566.09;5052814;28;20092;-74
2021/01/31 11:37:58;;;;;;;37.65;19.35;;;;;;;6.42;82.79;99570.44;5058589;28;20041;-75
2021/01/31 11:40:24;;;;;;;41.88;18.88;;;;;;;6.40;83.18;99571.22;5053728;28;20426;-72
2021/01/31 11:42:51;;;;;;;38.05;18.00;;;;;;;6.30;83.52;99572.53;5051506;28;20067;-73
2021/01/31 11:45:20;;;;;;;20.70;13.07;;;;;;;6.25;83.11;99567.22;5048997;28;20098;-75
2021/01/31 11:47:45;;;;;;;72.60;34.33;;;;;;;6.21;83.15;99574.75;5051883;28;20499;-74
2021/01/31 11:50:12;;;;;;;149.05;53.42;;;;;;;6.10;83.11;99561.50;5050745;28;20047;-72
2021/01/31 11:52:38;;;;;;;36.95;18.40;;;;;;;6.03;83.24;99560.38;5051134;28;20119;-72
2021/01/31 11:55:08;;;;;;;29.38;15.40;;;;;;;5.71;83.10;99505.22;5050021;28;20116;-73
2021/01/31 11:57:36;;;;;;;37.38;18.50;;;;;;;5.70;82.90;99495.81;5051355;28;20044;-81
2021/01/31 12:00:16;;;;;;;61.07;37.13;;;;;;;6.06;82.91;99564.75;5048635;28;20033;-86
2021/01/31 12:02:41;;;;;;;25.50;15.65;;;;;;;5.54;83.12;99474.69;5032712;28;20104;-83
2021/01/31 12:05:28;;;;;;;16.98;11.80;;;;;;;5.99;83.38;99549.13;5048883;28;20671;-82
2021/01/31 12:08:03;;;;;;;15.23;10.93;;;;;;;5.85;83.61;99534.84;5047861;28;20033;-76
2021/01/31 12:10:41;;;;;;;17.60;11.65;;;;;;;5.58;83.31;99476.59;5039395;28;20102;-83
2021/01/31 12:13:09;;;;;;;17.50;10.85;;;;;;;5.86;84.33;99533.13;5048040;28;20082;-74
2021/01/31 12:15:35;;;;;;;16.30;11.98;;;;;;;5.94;83.95;99536.91;5050127;28;20025;-81
2021/01/31 12:18:00;;;;;;;34.28;18.48;;;;;;;5.82;84.49;99535.59;5050609;28;20025;-79
2021/01/31 12:20:25;;;;;;;33.05;15.75;;;;;;;5.75;84.86;99527.59;5083603;28;20029;-80
2021/01/31 12:26:12;;;;;;;25.42;20.92;;;;;;;5.68;85.55;99516.22;5034172;28;20048;-73
2021/01/31 12:28:38;;;;;;;17.27;14.10;;;;;;;5.79;85.80;99532.03;5050592;28;20033;-80
2021/01/31 12:31:03;;;;;;;22.65;16.17;;;;;;;5.75;86.41;99518.22;5051702;28;20101;-88
2021/01/31 12:33:29;;;;;;;16.48;12.35;;;;;;;5.81;85.61;99517.59;5051630;28;20032;-85
2021/01/31 12:35:54;;;;;;;18.30;12.23;;;;;;;5.93;86.08;99522.34;5049092;28;20537;-83
2021/01/31 12:38:20;;;;;;;18.95;13.68;;;;;;;5.79;86.17;99488.50;5081009;28;20043;-83
2021/01/31 12:40:45;;;;;;;16.42;12.25;;;;;;;6.10;85.28;99525.63;5047758;28;20024;-74
2021/01/31 12:43:11;;;;;;;18.55;13.63;;;;;;;5.71;85.57;99454.91;5050046;28;20025;-72
2021/01/31 12:45:36;;;;;;;23.10;14.93;;;;;;;6.17;85.03;99527.63;5050781;28;20478;-71
2021/01/31 12:48:02;;;;;;;95.28;41.47;;;;;;;6.19;85.38;99525.09;5052191;28;20033;-72
2021/01/31 12:50:29;;;;;;;59.28;24.40;;;;;;;6.17;84.94;99519.94;5052275;28;20024;-71
2021/01/31 12:52:55;;;;;;;97.75;35.35;;;;;;;6.01;84.83;99507.28;5052248;28;20035;-74
2021/01/31 12:55:21;;;;;;;53.63;26.67;;;;;;;5.72;85.58;99466.91;5051110;28;20032;-76
2021/01/31 12:57:47;;;;;;;225.95;103.53;;;;;;;6.02;85.72;99506.50;5051587;28;20039;-77
2021/01/31 13:00:16;;;;;;;62.97;41.15;;;;;;;5.87;85.85;99486.22;5050402;28;20028;-78
2021/01/31 13:02:41;;;;;;;27.92;20.02;;;;;;;6.06;84.99;99511.81;5052342;28;20021;-76
2021/01/31 13:05:08;;;;;;;55.95;43.45;;;;;;;5.96;85.17;99495.16;5049353;28;20047;-77
2021/01/31 13:07:34;;;;;;;47.38;36.00;;;;;;;6.01;85.75;99509.84;5068230;28;20032;-72